Flight Number: EUR1092 Duration: 1:30
Departure: Milano Linate (LIML) at 08:30 Distance: 510 Nm
Arrival: Gatwick Airport (EGKK) at 10:00 Equipment: MD-81

Weather Information
Milano / Linate, Italy (LIML) 45-26N 009-17E 103M May 20, 2018 - 09:50 AM EDT / 2018.05.20 1350 UTC
Wind: from the NW (320 degrees) at 9 MPH (8 KT) (direction variable):0
Visibility: greater than 7 mile(s):0
Sky conditions: mostly cloudy Weather: Towering cumulus clouds observed Temperature: 75 F (24 C) Dew Point: 55 F (13 C) Relative Humidity: 50% Pressure (altimeter): 29.97 in. Hg (1015 hPa)
ob: LIML 201350Z 32008KT 280V360 9999 SCT030TCU BKN060 24/13 Q1015 BECMG TS cycle: 14
Sunrise: 03:50 Sunset: 18:48 (UTC)

London / Gatwick Airport, United Kingdom (EGKK) 51-09N 000-11W 0M May 20, 2018 - 09:50 AM EDT / 2018.05.20 1350 UTC
Wind: from the ENE (070 degrees) at 8 MPH (7 KT) (direction variable):0
Visibility: greater than 7 mile(s):0 Temperature: 66 F (19 C) Dew Point: 51 F (11 C) Relative Humidity: 59% Pressure (altimeter): 30.15 in. Hg (1021 hPa)
ob: EGKK 201350Z 07007KT 020V110 CAVOK 19/11 Q1021 cycle: 14
Sunrise: 04:06 Sunset: 19:47 (UTC)

TAF:2018/05/20 12:16 TAF EGKK 201052Z 2012/2118 07006KT 9999 SCT035 BECMG 2022/2101 7000 TEMPO 2101/2108 3000 BR BKN004 PROB30 TEMPO 2101/2107 0500 FG BKN001 BECMG 2107/2110 9999 PROB30 TEMPO 2110/2114 6000 SHRA

Previous Pireps for this route
Date Aircraft Flight time Fuel used Landing rate On time
2012-08-27MD-8102.2112000-349No
2012-09-23MD-8102.0713658-164No
2012-12-14A32101.4810598-234Yes
2013-03-06A3211.328957-74No
2013-09-02A3211.35117810No
2014-01-02A32101.3910325-265Yes
2014-10-15MD-8101.3510888-386Yes
2015-05-25A32101.5911235-231Yes
2015-08-10MD-8101.3710852-234Yes
2016-03-12MD-8101.4011151-204Yes
2016-10-16MD-811.40120520Charter
2017-08-26MD-812.2890620Charter
2017-08-26MD-812.2890620Charter
(pireps marked green are flown by you)

Route map